sensor_id;sensor_type;location;lat;lon;timestamp;P1;durP1;ratioP1;P2;durP2;ratioP2
19341;SDS011;9807;48.258;12.690;2023-08-31T00:00:12;3.63;;;2.40;;
19341;SDS011;9807;48.258;12.690;2023-08-31T00:02:40;4.40;;;2.80;;
19341;SDS011;9807;48.258;12.690;2023-08-31T00:05:06;5.83;;;2.97;;
19341;SDS011;9807;48.258;12.690;2023-08-31T00:07:32;2.90;;;2.70;;
19341;SDS011;9807;48.258;12.690;2023-08-31T00:09:58;3.00;;;2.80;;
19341;SDS011;9807;48.258;12.690;2023-08-31T00:12:28;2.57;;;2.23;;
19341;SDS011;9807;48.258;12.690;2023-08-31T00:14:53;3.53;;;2.87;;
19341;SDS011;9807;48.258;12.690;2023-08-31T00:17:19;3.60;;;2.93;;
19341;SDS011;9807;48.258;12.690;2023-08-31T00:19:45;3.27;;;2.93;;
19341;SDS011;9807;48.258;12.690;2023-08-31T00:22:10;4.33;;;3.50;;
19341;SDS011;9807;48.258;12.690;2023-08-31T00:24:36;4.37;;;3.30;;
19341;SDS011;9807;48.258;12.690;2023-08-31T00:27:04;10.27;;;3.27;;
19341;SDS011;9807;48.258;12.690;2023-08-31T00:29:31;4.33;;;3.30;;
19341;SDS011;9807;48.258;12.690;2023-08-31T00:31:57;2.83;;;2.63;;
19341;SDS011;9807;48.258;12.690;2023-08-31T00:34:23;3.83;;;3.30;;
19341;SDS011;9807;48.258;12.690;2023-08-31T00:36:48;4.17;;;3.10;;
19341;SDS011;9807;48.258;12.690;2023-08-31T00:39:14;2.83;;;2.57;;
19341;SDS011;9807;48.258;12.690;2023-08-31T00:41:42;3.10;;;2.90;;
19341;SDS011;9807;48.258;12.690;2023-08-31T00:44:13;2.30;;;2.10;;
19341;SDS011;9807;48.258;12.690;2023-08-31T00:46:40;2.30;;;2.10;;
19341;SDS011;9807;48.258;12.690;2023-08-31T00:49:06;2.37;;;2.20;;
19341;SDS011;9807;48.258;12.690;2023-08-31T00:51:33;5.17;;;2.70;;
19341;SDS011;9807;48.258;12.690;2023-08-31T00:53:59;2.50;;;2.30;;
19341;SDS011;9807;48.258;12.690;2023-08-31T00:56:27;3.20;;;2.20;;
19341;SDS011;9807;48.258;12.690;2023-08-31T00:58:53;2.20;;;2.00;;
19341;SDS011;9807;48.258;12.690;2023-08-31T01:04:03;5.30;;;3.43;;
19341;SDS011;9807;48.258;12.690;2023-08-31T01:09:39;5.20;;;2.97;;
19341;SDS011;9807;48.258;12.690;2023-08-31T01:12:11;4.23;;;2.67;;
19341;SDS011;9807;48.258;12.690;2023-08-31T01:14:52;9.73;;;3.57;;
19341;SDS011;9807;48.258;12.690;2023-08-31T01:17:28;4.33;;;3.83;;
19341;SDS011;9807;48.258;12.690;2023-08-31T01:19:57;3.03;;;2.77;;
19341;SDS011;9807;48.258;12.690;2023-08-31T01:25:02;2.97;;;2.53;;
19341;SDS011;9807;48.258;12.690;2023-08-31T01:27:30;7.70;;;3.23;;
19341;SDS011;9807;48.258;12.690;2023-08-31T01:29:57;3.87;;;3.57;;
19341;SDS011;9807;48.258;12.690;2023-08-31T01:32:22;3.73;;;2.73;;
19341;SDS011;9807;48.258;12.690;2023-08-31T01:34:49;2.63;;;2.03;;
19341;SDS011;9807;48.258;12.690;2023-08-31T01:37:17;3.73;;;2.10;;
19341;SDS011;9807;48.258;12.690;2023-08-31T01:39:58;3.17;;;2.50;;
19341;SDS011;9807;48.258;12.690;2023-08-31T01:42:38;5.77;;;2.50;;
19341;SDS011;9807;48.258;12.690;2023-08-31T01:45:04;3.40;;;3.10;;
19341;SDS011;9807;48.258;12.690;2023-08-31T01:47:31;2.40;;;2.20;;
19341;SDS011;9807;48.258;12.690;2023-08-31T01:49:57;3.50;;;2.60;;
19341;SDS011;9807;48.258;12.690;2023-08-31T01:52:23;4.13;;;3.73;;
19341;SDS011;9807;48.258;12.690;2023-08-31T01:54:49;2.50;;;2.30;;
19341;SDS011;9807;48.258;12.690;2023-08-31T01:57:14;1.90;;;1.80;;
19341;SDS011;9807;48.258;12.690;2023-08-31T01:59:40;2.63;;;2.43;;
19341;SDS011;9807;48.258;12.690;2023-08-31T02:02:06;3.60;;;2.40;;
19341;SDS011;9807;48.258;12.690;2023-08-31T02:04:35;2.40;;;2.20;;
19341;SDS011;9807;48.258;12.690;2023-08-31T02:07:00;5.33;;;2.40;;
19341;SDS011;9807;48.258;12.690;2023-08-31T02:09:26;2.27;;;2.07;;
19341;SDS011;9807;48.258;12.690;2023-08-31T02:11:52;8.20;;;3.70;;
19341;SDS011;9807;48.258;12.690;2023-08-31T02:14:18;2.60;;;2.10;;
19341;SDS011;9807;48.258;12.690;2023-08-31T02:16:43;2.67;;;2.40;;
19341;SDS011;9807;48.258;12.690;2023-08-31T02:19:09;2.33;;;1.90;;
19341;SDS011;9807;48.258;12.690;2023-08-31T02:21:35;2.40;;;2.20;;
19341;SDS011;9807;48.258;12.690;2023-08-31T02:24:00;2.40;;;2.20;;
19341;SDS011;9807;48.258;12.690;2023-08-31T02:26:26;3.27;;;2.40;;
19341;SDS011;9807;48.258;12.690;2023-08-31T02:28:51;2.93;;;2.40;;
19341;SDS011;9807;48.258;12.690;2023-08-31T02:31:17;2.30;;;2.10;;
19341;SDS011;9807;48.258;12.690;2023-08-31T02:33:44;2.00;;;1.80;;
19341;SDS011;9807;48.258;12.690;2023-08-31T02:36:11;3.07;;;2.20;;
19341;SDS011;9807;48.258;12.690;2023-08-31T02:38:37;2.87;;;1.87;;
19341;SDS011;9807;48.258;12.690;2023-08-31T02:41:03;3.40;;;1.90;;
19341;SDS011;9807;48.258;12.690;2023-08-31T02:43:28;4.60;;;2.60;;
19341;SDS011;9807;48.258;12.690;2023-08-31T02:46:01;2.10;;;1.90;;
19341;SDS011;9807;48.258;12.690;2023-08-31T02:48:27;3.30;;;3.00;;
19341;SDS011;9807;48.258;12.690;2023-08-31T02:50:55;3.40;;;2.07;;
19341;SDS011;9807;48.258;12.690;2023-08-31T02:53:28;2.70;;;2.50;;
19341;SDS011;9807;48.258;12.690;2023-08-31T02:55:55;3.03;;;2.43;;
19341;SDS011;9807;48.258;12.690;2023-08-31T02:58:20;3.00;;;2.30;;
19341;SDS011;9807;48.258;12.690;2023-08-31T03:00:46;3.53;;;2.30;;
19341;SDS011;9807;48.258;12.690;2023-08-31T03:03:16;2.87;;;2.60;;
19341;SDS011;9807;48.258;12.690;2023-08-31T03:05:41;2.93;;;2.50;;
19341;SDS011;9807;48.258;12.690;2023-08-31T03:08:07;1.90;;;1.80;;
19341;SDS011;9807;48.258;12.690;2023-08-31T03:10:33;3.27;;;2.10;;
19341;SDS011;9807;48.258;12.690;2023-08-31T03:13:00;3.73;;;2.43;;
19341;SDS011;9807;48.258;12.690;2023-08-31T03:15:28;2.83;;;2.63;;
19341;SDS011;9807;48.258;12.690;2023-08-31T03:17:54;4.40;;;2.20;;
19341;SDS011;9807;48.258;12.690;2023-08-31T03:20:19;2.80;;;2.60;;
19341;SDS011;9807;48.258;12.690;2023-08-31T03:22:45;8.07;;;3.53;;
19341;SDS011;9807;48.258;12.690;2023-08-31T03:25:11;3.93;;;3.13;;
19341;SDS011;9807;48.258;12.690;2023-08-31T03:27:37;4.90;;;2.80;;
19341;SDS011;9807;48.258;12.690;2023-08-31T03:30:02;3.97;;;3.67;;
19341;SDS011;9807;48.258;12.690;2023-08-31T03:32:29;6.70;;;3.67;;
19341;SDS011;9807;48.258;12.690;2023-08-31T03:34:55;4.63;;;2.80;;
19341;SDS011;9807;48.258;12.690;2023-08-31T03:37:20;2.67;;;2.43;;
19341;SDS011;9807;48.258;12.690;2023-08-31T03:39:49;3.10;;;2.30;;
19341;SDS011;9807;48.258;12.690;2023-08-31T03:42:15;2.87;;;2.43;;
19341;SDS011;9807;48.258;12.690;2023-08-31T03:44:41;5.20;;;2.73;;
19341;SDS011;9807;48.258;12.690;2023-08-31T03:47:07;2.10;;;1.90;;
19341;SDS011;9807;48.258;12.690;2023-08-31T03:49:33;3.47;;;3.17;;
19341;SDS011;9807;48.258;12.690;2023-08-31T03:52:00;3.87;;;2.80;;
19341;SDS011;9807;48.258;12.690;2023-08-31T03:54:26;3.73;;;2.53;;
19341;SDS011;9807;48.258;12.690;2023-08-31T03:56:52;2.93;;;2.70;;
19341;SDS011;9807;48.258;12.690;2023-08-31T03:59:17;5.10;;;3.10;;
19341;SDS011;9807;48.258;12.690;2023-08-31T04:01:46;3.00;;;2.40;;
19341;SDS011;9807;48.258;12.690;2023-08-31T04:04:11;2.30;;;2.10;;
19341;SDS011;9807;48.258;12.690;2023-08-31T04:06:37;2.97;;;2.67;;
19341;SDS011;9807;48.258;12.690;2023-08-31T04:09:03;3.53;;;2.50;;
19341;SDS011;9807;48.258;12.690;2023-08-31T04:11:29;2.50;;;2.30;;
19341;SDS011;9807;48.258;12.690;2023-08-31T04:13:55;3.57;;;2.63;;
19341;SDS011;9807;48.258;12.690;2023-08-31T04:16:20;5.10;;;3.30;;
19341;SDS011;9807;48.258;12.690;2023-08-31T04:18:46;2.60;;;2.40;;
19341;SDS011;9807;48.258;12.690;2023-08-31T04:21:16;4.10;;;2.97;;
19341;SDS011;9807;48.258;12.690;2023-08-31T04:23:42;3.63;;;3.20;;
19341;SDS011;9807;48.258;12.690;2023-08-31T04:26:12;4.03;;;3.60;;
19341;SDS011;9807;48.258;12.690;2023-08-31T04:28:41;7.13;;;3.27;;
19341;SDS011;9807;48.258;12.690;2023-08-31T04:31:07;4.10;;;3.60;;
19341;SDS011;9807;48.258;12.690;2023-08-31T04:33:37;5.07;;;3.60;;
19341;SDS011;9807;48.258;12.690;2023-08-31T04:36:04;5.03;;;3.40;;
19341;SDS011;9807;48.258;12.690;2023-08-31T04:38:33;5.10;;;3.50;;
19341;SDS011;9807;48.258;12.690;2023-08-31T04:41:00;7.47;;;3.80;;
19341;SDS011;9807;48.258;12.690;2023-08-31T04:43:26;7.23;;;4.07;;
19341;SDS011;9807;48.258;12.690;2023-08-31T04:45:52;7.30;;;3.80;;
19341;SDS011;9807;48.258;12.690;2023-08-31T04:48:18;4.97;;;4.00;;
19341;SDS011;9807;48.258;12.690;2023-08-31T04:50:44;7.37;;;4.90;;
19341;SDS011;9807;48.258;12.690;2023-08-31T04:53:10;12.53;;;5.47;;
19341;SDS011;9807;48.258;12.690;2023-08-31T04:55:36;8.07;;;5.00;;
19341;SDS011;9807;48.258;12.690;2023-08-31T04:58:02;8.60;;;5.27;;
19341;SDS011;9807;48.258;12.690;2023-08-31T05:00:31;9.90;;;5.87;;
19341;SDS011;9807;48.258;12.690;2023-08-31T05:02:57;12.40;;;5.53;;
19341;SDS011;9807;48.258;12.690;2023-08-31T05:05:23;6.43;;;5.53;;
19341;SDS011;9807;48.258;12.690;2023-08-31T05:07:48;8.00;;;5.13;;
19341;SDS011;9807;48.258;12.690;2023-08-31T05:10:14;7.73;;;5.20;;
19341;SDS011;9807;48.258;12.690;2023-08-31T05:12:41;10.10;;;5.40;;
19341;SDS011;9807;48.258;12.690;2023-08-31T05:15:07;6.33;;;5.20;;
19341;SDS011;9807;48.258;12.690;2023-08-31T05:17:34;5.80;;;4.80;;
19341;SDS011;9807;48.258;12.690;2023-08-31T05:20:00;6.63;;;4.63;;
19341;SDS011;9807;48.258;12.690;2023-08-31T05:22:28;8.23;;;4.80;;
19341;SDS011;9807;48.258;12.690;2023-08-31T05:24:54;5.43;;;4.37;;
19341;SDS011;9807;48.258;12.690;2023-08-31T05:27:26;7.33;;;5.10;;
19341;SDS011;9807;48.258;12.690;2023-08-31T05:29:51;9.07;;;5.87;;
19341;SDS011;9807;48.258;12.690;2023-08-31T05:32:17;6.67;;;5.20;;
19341;SDS011;9807;48.258;12.690;2023-08-31T05:34:43;7.43;;;4.53;;
19341;SDS011;9807;48.258;12.690;2023-08-31T05:37:09;7.30;;;5.20;;
19341;SDS011;9807;48.258;12.690;2023-08-31T05:39:35;5.53;;;4.40;;
19341;SDS011;9807;48.258;12.690;2023-08-31T05:42:01;10.20;;;4.43;;
19341;SDS011;9807;48.258;12.690;2023-08-31T05:44:27;6.13;;;4.57;;
19341;SDS011;9807;48.258;12.690;2023-08-31T05:46:52;11.07;;;4.77;;
19341;SDS011;9807;48.258;12.690;2023-08-31T05:49:18;5.63;;;4.20;;
19341;SDS011;9807;48.258;12.690;2023-08-31T05:51:44;6.93;;;4.40;;
19341;SDS011;9807;48.258;12.690;2023-08-31T05:54:09;23.83;;;5.30;;
19341;SDS011;9807;48.258;12.690;2023-08-31T05:56:38;8.93;;;5.20;;
19341;SDS011;9807;48.258;12.690;2023-08-31T05:59:04;6.87;;;5.23;;
19341;SDS011;9807;48.258;12.690;2023-08-31T06:01:31;10.73;;;5.10;;
19341;SDS011;9807;48.258;12.690;2023-08-31T06:03:57;8.77;;;4.93;;
19341;SDS011;9807;48.258;12.690;2023-08-31T06:06:22;8.67;;;5.03;;
19341;SDS011;9807;48.258;12.690;2023-08-31T06:08:48;6.17;;;4.80;;
19341;SDS011;9807;48.258;12.690;2023-08-31T06:11:14;9.77;;;5.50;;
19341;SDS011;9807;48.258;12.690;2023-08-31T06:13:40;6.50;;;5.10;;
19341;SDS011;9807;48.258;12.690;2023-08-31T06:16:06;13.07;;;5.30;;
19341;SDS011;9807;48.258;12.690;2023-08-31T06:18:32;9.77;;;5.13;;
19341;SDS011;9807;48.258;12.690;2023-08-31T06:20:57;14.00;;;5.40;;
19341;SDS011;9807;48.258;12.690;2023-08-31T06:23:23;10.50;;;4.07;;
19341;SDS011;9807;48.258;12.690;2023-08-31T06:25:49;12.77;;;4.50;;
19341;SDS011;9807;48.258;12.690;2023-08-31T06:28:14;5.33;;;3.93;;
19341;SDS011;9807;48.258;12.690;2023-08-31T06:30:40;6.80;;;4.10;;
19341;SDS011;9807;48.258;12.690;2023-08-31T06:33:11;9.37;;;4.10;;
19341;SDS011;9807;48.258;12.690;2023-08-31T06:35:39;6.90;;;4.30;;
19341;SDS011;9807;48.258;12.690;2023-08-31T06:38:04;7.80;;;3.93;;
19341;SDS011;9807;48.258;12.690;2023-08-31T06:40:30;4.77;;;4.27;;
19341;SDS011;9807;48.258;12.690;2023-08-31T06:42:56;9.90;;;4.67;;
19341;SDS011;9807;48.258;12.690;2023-08-31T06:45:22;5.30;;;4.53;;
19341;SDS011;9807;48.258;12.690;2023-08-31T06:47:47;22.27;;;4.90;;
19341;SDS011;9807;48.258;12.690;2023-08-31T06:50:15;7.50;;;4.50;;
19341;SDS011;9807;48.258;12.690;2023-08-31T06:52:41;8.10;;;4.50;;
19341;SDS011;9807;48.258;12.690;2023-08-31T06:55:07;7.77;;;4.47;;
19341;SDS011;9807;48.258;12.690;2023-08-31T06:57:36;6.10;;;4.00;;
19341;SDS011;9807;48.258;12.690;2023-08-31T07:00:02;4.37;;;3.97;;
19341;SDS011;9807;48.258;12.690;2023-08-31T07:02:29;4.30;;;3.90;;
19341;SDS011;9807;48.258;12.690;2023-08-31T07:04:54;4.97;;;3.93;;
19341;SDS011;9807;48.258;12.690;2023-08-31T07:07:20;5.33;;;3.63;;
19341;SDS011;9807;48.258;12.690;2023-08-31T07:09:46;4.80;;;4.00;;
19341;SDS011;9807;48.258;12.690;2023-08-31T07:12:15;5.27;;;3.50;;
19341;SDS011;9807;48.258;12.690;2023-08-31T07:14:41;11.00;;;3.63;;
19341;SDS011;9807;48.258;12.690;2023-08-31T07:17:07;9.13;;;3.80;;
19341;SDS011;9807;48.258;12.690;2023-08-31T07:19:35;8.53;;;3.70;;
19341;SDS011;9807;48.258;12.690;2023-08-31T07:22:02;5.90;;;3.40;;
19341;SDS011;9807;48.258;12.690;2023-08-31T07:24:29;5.03;;;3.47;;
19341;SDS011;9807;48.258;12.690;2023-08-31T07:26:55;6.33;;;3.70;;
19341;SDS011;9807;48.258;12.690;2023-08-31T07:29:21;4.73;;;3.10;;
19341;SDS011;9807;48.258;12.690;2023-08-31T07:31:46;5.40;;;3.43;;
19341;SDS011;9807;48.258;12.690;2023-08-31T07:34:12;4.37;;;3.40;;
19341;SDS011;9807;48.258;12.690;2023-08-31T07:36:38;9.90;;;3.57;;
19341;SDS011;9807;48.258;12.690;2023-08-31T07:39:05;7.03;;;3.67;;
19341;SDS011;9807;48.258;12.690;2023-08-31T07:41:30;5.10;;;3.50;;
19341;SDS011;9807;48.258;12.690;2023-08-31T07:43:56;8.17;;;3.70;;
19341;SDS011;9807;48.258;12.690;2023-08-31T07:46:21;4.20;;;3.30;;
19341;SDS011;9807;48.258;12.690;2023-08-31T07:48:47;7.20;;;3.10;;
19341;SDS011;9807;48.258;12.690;2023-08-31T07:51:15;6.53;;;3.40;;
19341;SDS011;9807;48.258;12.690;2023-08-31T07:53:41;10.07;;;2.80;;
19341;SDS011;9807;48.258;12.690;2023-08-31T07:56:07;6.60;;;3.30;;
19341;SDS011;9807;48.258;12.690;2023-08-31T07:58:33;6.57;;;3.47;;
19341;SDS011;9807;48.258;12.690;2023-08-31T08:01:01;6.17;;;2.80;;
19341;SDS011;9807;48.258;12.690;2023-08-31T08:03:27;4.17;;;3.00;;
19341;SDS011;9807;48.258;12.690;2023-08-31T08:05:52;4.47;;;3.27;;
19341;SDS011;9807;48.258;12.690;2023-08-31T08:08:20;8.83;;;3.10;;
19341;SDS011;9807;48.258;12.690;2023-08-31T08:10:46;9.90;;;3.60;;
19341;SDS011;9807;48.258;12.690;2023-08-31T08:13:11;6.10;;;2.97;;
19341;SDS011;9807;48.258;12.690;2023-08-31T08:15:37;5.33;;;2.73;;
19341;SDS011;9807;48.258;12.690;2023-08-31T08:18:03;8.00;;;2.80;;
19341;SDS011;9807;48.258;12.690;2023-08-31T08:20:29;8.50;;;2.70;;
19341;SDS011;9807;48.258;12.690;2023-08-31T08:22:56;4.30;;;2.97;;
19341;SDS011;9807;48.258;12.690;2023-08-31T08:25:23;6.77;;;2.83;;
19341;SDS011;9807;48.258;12.690;2023-08-31T08:27:49;5.17;;;3.10;;
19341;SDS011;9807;48.258;12.690;2023-08-31T08:30:15;3.33;;;2.90;;
19341;SDS011;9807;48.258;12.690;2023-08-31T08:32:46;6.00;;;3.03;;
19341;SDS011;9807;48.258;12.690;2023-08-31T08:35:12;5.47;;;3.20;;
19341;SDS011;9807;48.258;12.690;2023-08-31T08:37:41;11.83;;;3.73;;
19341;SDS011;9807;48.258;12.690;2023-08-31T08:40:07;9.27;;;2.90;;
19341;SDS011;9807;48.258;12.690;2023-08-31T08:42:37;3.97;;;2.93;;
19341;SDS011;9807;48.258;12.690;2023-08-31T08:45:07;5.60;;;2.70;;
19341;SDS011;9807;48.258;12.690;2023-08-31T08:47:42;5.40;;;2.97;;
19341;SDS011;9807;48.258;12.690;2023-08-31T08:50:10;4.43;;;2.63;;
19341;SDS011;9807;48.258;12.690;2023-08-31T08:52:37;4.00;;;2.93;;
19341;SDS011;9807;48.258;12.690;2023-08-31T08:55:07;3.40;;;2.93;;
19341;SDS011;9807;48.258;12.690;2023-08-31T08:57:34;4.17;;;3.13;;
19341;SDS011;9807;48.258;12.690;2023-08-31T09:00:03;5.10;;;3.10;;
19341;SDS011;9807;48.258;12.690;2023-08-31T09:02:30;8.00;;;2.70;;
19341;SDS011;9807;48.258;12.690;2023-08-31T09:04:55;7.33;;;2.97;;
19341;SDS011;9807;48.258;12.690;2023-08-31T09:07:21;4.27;;;2.63;;
19341;SDS011;9807;48.258;12.690;2023-08-31T09:09:50;6.23;;;3.20;;
19341;SDS011;9807;48.258;12.690;2023-08-31T09:12:17;5.73;;;2.83;;
19341;SDS011;9807;48.258;12.690;2023-08-31T09:14:44;5.90;;;3.10;;
19341;SDS011;9807;48.258;12.690;2023-08-31T09:17:37;4.03;;;2.70;;
19341;SDS011;9807;48.258;12.690;2023-08-31T09:20:03;9.80;;;2.90;;
19341;SDS011;9807;48.258;12.690;2023-08-31T09:22:29;3.10;;;2.50;;
19341;SDS011;9807;48.258;12.690;2023-08-31T09:24:55;3.90;;;2.60;;
19341;SDS011;9807;48.258;12.690;2023-08-31T09:27:21;6.30;;;2.90;;
19341;SDS011;9807;48.258;12.690;2023-08-31T09:29:50;4.53;;;2.60;;
19341;SDS011;9807;48.258;12.690;2023-08-31T09:32:19;6.43;;;2.93;;
19341;SDS011;9807;48.258;12.690;2023-08-31T09:34:45;3.43;;;2.60;;
19341;SDS011;9807;48.258;12.690;2023-08-31T09:37:12;4.67;;;2.67;;
19341;SDS011;9807;48.258;12.690;2023-08-31T09:39:40;8.23;;;2.90;;
19341;SDS011;9807;48.258;12.690;2023-08-31T09:42:06;2.80;;;2.43;;
19341;SDS011;9807;48.258;12.690;2023-08-31T09:44:32;4.00;;;2.70;;
19341;SDS011;9807;48.258;12.690;2023-08-31T09:47:01;4.00;;;2.53;;
19341;SDS011;9807;48.258;12.690;2023-08-31T09:49:28;7.17;;;2.97;;
19341;SDS011;9807;48.258;12.690;2023-08-31T09:51:54;6.03;;;2.83;;
19341;SDS011;9807;48.258;12.690;2023-08-31T09:54:20;4.70;;;2.50;;
19341;SDS011;9807;48.258;12.690;2023-08-31T09:56:53;7.00;;;2.80;;
19341;SDS011;9807;48.258;12.690;2023-08-31T09:59:21;4.10;;;2.50;;
19341;SDS011;9807;48.258;12.690;2023-08-31T10:01:47;5.73;;;2.77;;
19341;SDS011;9807;48.258;12.690;2023-08-31T10:04:13;7.03;;;2.53;;
19341;SDS011;9807;48.258;12.690;2023-08-31T10:06:40;3.57;;;2.30;;
19341;SDS011;9807;48.258;12.690;2023-08-31T10:09:07;3.30;;;2.63;;
19341;SDS011;9807;48.258;12.690;2023-08-31T10:11:37;4.37;;;2.40;;
19341;SDS011;9807;48.258;12.690;2023-08-31T10:14:04;4.07;;;2.90;;
19341;SDS011;9807;48.258;12.690;2023-08-31T10:16:30;6.47;;;2.90;;
19341;SDS011;9807;48.258;12.690;2023-08-31T10:18:57;5.77;;;2.70;;
19341;SDS011;9807;48.258;12.690;2023-08-31T10:21:23;5.90;;;2.53;;
19341;SDS011;9807;48.258;12.690;2023-08-31T10:23:53;5.57;;;2.50;;
19341;SDS011;9807;48.258;12.690;2023-08-31T10:26:28;3.70;;;2.40;;
19341;SDS011;9807;48.258;12.690;2023-08-31T10:28:55;4.30;;;2.30;;
19341;SDS011;9807;48.258;12.690;2023-08-31T10:31:22;5.57;;;2.50;;
19341;SDS011;9807;48.258;12.690;2023-08-31T10:33:56;3.53;;;2.10;;
19341;SDS011;9807;48.258;12.690;2023-08-31T10:36:34;5.80;;;2.30;;
19341;SDS011;9807;48.258;12.690;2023-08-31T10:39:00;4.80;;;2.47;;
19341;SDS011;9807;48.258;12.690;2023-08-31T10:41:34;5.07;;;2.50;;
19341;SDS011;9807;48.258;12.690;2023-08-31T10:44:00;2.63;;;2.40;;
19341;SDS011;9807;48.258;12.690;2023-08-31T10:51:34;4.47;;;2.30;;
19341;SDS011;9807;48.258;12.690;2023-08-31T10:54:04;3.97;;;2.50;;
19341;SDS011;9807;48.258;12.690;2023-08-31T10:59:23;5.07;;;2.30;;
19341;SDS011;9807;48.258;12.690;2023-08-31T11:01:57;5.57;;;2.63;;
19341;SDS011;9807;48.258;12.690;2023-08-31T11:04:26;10.10;;;2.80;;
19341;SDS011;9807;48.258;12.690;2023-08-31T11:09:41;14.60;;;3.50;;
19341;SDS011;9807;48.258;12.690;2023-08-31T11:12:09;8.97;;;3.07;;
19341;SDS011;9807;48.258;12.690;2023-08-31T11:14:35;6.33;;;2.97;;
19341;SDS011;9807;48.258;12.690;2023-08-31T11:17:02;4.00;;;2.50;;
19341;SDS011;9807;48.258;12.690;2023-08-31T11:19:30;6.67;;;3.40;;
19341;SDS011;9807;48.258;12.690;2023-08-31T11:21:56;9.60;;;3.20;;
19341;SDS011;9807;48.258;12.690;2023-08-31T11:24:22;12.10;;;3.67;;
19341;SDS011;9807;48.258;12.690;2023-08-31T11:26:51;9.10;;;3.40;;
19341;SDS011;9807;48.258;12.690;2023-08-31T11:29:17;5.90;;;2.93;;
19341;SDS011;9807;48.258;12.690;2023-08-31T11:31:43;9.53;;;3.20;;
19341;SDS011;9807;48.258;12.690;2023-08-31T11:34:13;11.30;;;3.73;;
19341;SDS011;9807;48.258;12.690;2023-08-31T11:36:45;5.37;;;3.23;;
19341;SDS011;9807;48.258;12.690;2023-08-31T11:39:12;9.63;;;3.90;;
19341;SDS011;9807;48.258;12.690;2023-08-31T11:41:38;8.43;;;3.83;;
19341;SDS011;9807;48.258;12.690;2023-08-31T11:44:07;7.43;;;3.27;;
19341;SDS011;9807;48.258;12.690;2023-08-31T11:46:34;5.33;;;3.00;;
19341;SDS011;9807;48.258;12.690;2023-08-31T11:49:03;6.27;;;3.00;;
19341;SDS011;9807;48.258;12.690;2023-08-31T11:51:29;4.03;;;2.77;;
19341;SDS011;9807;48.258;12.690;2023-08-31T11:53:57;7.73;;;3.03;;
19341;SDS011;9807;48.258;12.690;2023-08-31T11:56:25;9.90;;;2.90;;
19341;SDS011;9807;48.258;12.690;2023-08-31T11:58:51;9.43;;;3.77;;
19341;SDS011;9807;48.258;12.690;2023-08-31T12:01:17;5.40;;;2.90;;
19341;SDS011;9807;48.258;12.690;2023-08-31T12:03:45;7.57;;;3.17;;
19341;SDS011;9807;48.258;12.690;2023-08-31T12:06:11;11.47;;;3.40;;
19341;SDS011;9807;48.258;12.690;2023-08-31T12:08:40;8.17;;;3.50;;
19341;SDS011;9807;48.258;12.690;2023-08-31T12:11:09;5.03;;;2.97;;
19341;SDS011;9807;48.258;12.690;2023-08-31T12:13:35;7.27;;;3.00;;
19341;SDS011;9807;48.258;12.690;2023-08-31T12:16:01;6.33;;;2.90;;
19341;SDS011;9807;48.258;12.690;2023-08-31T12:18:29;6.83;;;3.10;;
19341;SDS011;9807;48.258;12.690;2023-08-31T12:20:56;7.70;;;3.03;;
19341;SDS011;9807;48.258;12.690;2023-08-31T12:23:23;8.33;;;2.90;;
19341;SDS011;9807;48.258;12.690;2023-08-31T12:25:49;5.87;;;2.73;;
19341;SDS011;9807;48.258;12.690;2023-08-31T12:28:16;6.13;;;3.33;;
19341;SDS011;9807;48.258;12.690;2023-08-31T12:30:47;4.63;;;2.80;;
19341;SDS011;9807;48.258;12.690;2023-08-31T12:33:14;3.30;;;2.50;;
19341;SDS011;9807;48.258;12.690;2023-08-31T12:35:39;6.40;;;2.90;;
19341;SDS011;9807;48.258;12.690;2023-08-31T12:38:05;4.53;;;2.70;;
19341;SDS011;9807;48.258;12.690;2023-08-31T12:40:32;5.80;;;3.23;;
19341;SDS011;9807;48.258;12.690;2023-08-31T12:43:01;6.47;;;3.50;;
19341;SDS011;9807;48.258;12.690;2023-08-31T12:45:27;6.20;;;3.20;;
19341;SDS011;9807;48.258;12.690;2023-08-31T12:47:53;5.27;;;2.60;;
19341;SDS011;9807;48.258;12.690;2023-08-31T12:50:18;6.33;;;2.70;;
19341;SDS011;9807;48.258;12.690;2023-08-31T12:52:47;6.30;;;2.87;;
19341;SDS011;9807;48.258;12.690;2023-08-31T12:55:16;5.90;;;3.00;;
19341;SDS011;9807;48.258;12.690;2023-08-31T12:57:42;5.50;;;3.13;;
19341;SDS011;9807;48.258;12.690;2023-08-31T13:00:11;6.37;;;3.03;;
19341;SDS011;9807;48.258;12.690;2023-08-31T13:02:38;4.53;;;2.60;;
19341;SDS011;9807;48.258;12.690;2023-08-31T13:05:04;3.93;;;2.87;;
19341;SDS011;9807;48.258;12.690;2023-08-31T13:07:30;5.57;;;2.93;;
19341;SDS011;9807;48.258;12.690;2023-08-31T13:10:00;5.00;;;2.87;;
19341;SDS011;9807;48.258;12.690;2023-08-31T13:12:28;4.40;;;3.00;;
19341;SDS011;9807;48.258;12.690;2023-08-31T13:14:55;5.73;;;2.73;;
19341;SDS011;9807;48.258;12.690;2023-08-31T13:17:21;4.90;;;3.00;;
19341;SDS011;9807;48.258;12.690;2023-08-31T13:19:52;4.33;;;3.17;;
19341;SDS011;9807;48.258;12.690;2023-08-31T13:22:18;5.23;;;2.80;;
19341;SDS011;9807;48.258;12.690;2023-08-31T13:24:43;4.80;;;3.10;;
19341;SDS011;9807;48.258;12.690;2023-08-31T13:27:09;6.23;;;3.00;;
19341;SDS011;9807;48.258;12.690;2023-08-31T13:29:35;8.23;;;2.83;;
19341;SDS011;9807;48.258;12.690;2023-08-31T13:32:00;4.07;;;2.67;;
19341;SDS011;9807;48.258;12.690;2023-08-31T13:34:26;11.87;;;2.70;;
19341;SDS011;9807;48.258;12.690;2023-08-31T13:36:52;5.80;;;2.60;;
19341;SDS011;9807;48.258;12.690;2023-08-31T13:39:17;6.00;;;2.60;;
19341;SDS011;9807;48.258;12.690;2023-08-31T13:41:44;3.40;;;2.40;;
19341;SDS011;9807;48.258;12.690;2023-08-31T13:44:11;4.57;;;2.13;;
19341;SDS011;9807;48.258;12.690;2023-08-31T13:46:36;6.53;;;2.63;;
19341;SDS011;9807;48.258;12.690;2023-08-31T13:49:02;6.67;;;2.23;;
19341;SDS011;9807;48.258;12.690;2023-08-31T13:51:28;8.43;;;2.47;;
19341;SDS011;9807;48.258;12.690;2023-08-31T13:53:53;3.17;;;2.10;;
19341;SDS011;9807;48.258;12.690;2023-08-31T13:56:19;3.73;;;2.27;;
19341;SDS011;9807;48.258;12.690;2023-08-31T13:58:45;4.00;;;2.03;;
19341;SDS011;9807;48.258;12.690;2023-08-31T14:01:10;7.67;;;2.50;;
19341;SDS011;9807;48.258;12.690;2023-08-31T14:03:38;6.97;;;2.30;;
19341;SDS011;9807;48.258;12.690;2023-08-31T14:06:04;4.97;;;2.20;;
19341;SDS011;9807;48.258;12.690;2023-08-31T14:08:30;4.80;;;2.40;;
19341;SDS011;9807;48.258;12.690;2023-08-31T14:10:55;5.23;;;2.73;;
19341;SDS011;9807;48.258;12.690;2023-08-31T14:13:21;8.43;;;2.50;;
19341;SDS011;9807;48.258;12.690;2023-08-31T14:15:47;6.00;;;2.50;;
19341;SDS011;9807;48.258;12.690;2023-08-31T14:18:13;5.57;;;2.17;;
19341;SDS011;9807;48.258;12.690;2023-08-31T14:20:39;4.70;;;2.20;;
19341;SDS011;9807;48.258;12.690;2023-08-31T14:23:05;8.47;;;2.30;;
19341;SDS011;9807;48.258;12.690;2023-08-31T14:25:37;8.87;;;2.50;;
19341;SDS011;9807;48.258;12.690;2023-08-31T14:28:03;9.37;;;2.47;;
19341;SDS011;9807;48.258;12.690;2023-08-31T14:30:30;6.60;;;2.70;;
19341;SDS011;9807;48.258;12.690;2023-08-31T14:32:55;4.40;;;2.37;;
19341;SDS011;9807;48.258;12.690;2023-08-31T14:35:21;6.47;;;2.83;;
19341;SDS011;9807;48.258;12.690;2023-08-31T14:37:47;5.50;;;2.63;;
19341;SDS011;9807;48.258;12.690;2023-08-31T14:40:13;6.63;;;2.60;;
19341;SDS011;9807;48.258;12.690;2023-08-31T14:42:39;5.97;;;2.60;;
19341;SDS011;9807;48.258;12.690;2023-08-31T14:45:05;6.70;;;2.40;;
19341;SDS011;9807;48.258;12.690;2023-08-31T14:47:31;6.03;;;2.67;;
19341;SDS011;9807;48.258;12.690;2023-08-31T14:49:57;7.90;;;2.40;;
19341;SDS011;9807;48.258;12.690;2023-08-31T14:52:23;5.30;;;2.40;;
19341;SDS011;9807;48.258;12.690;2023-08-31T14:54:49;10.20;;;2.57;;
19341;SDS011;9807;48.258;12.690;2023-08-31T14:57:14;7.80;;;3.10;;
19341;SDS011;9807;48.258;12.690;2023-08-31T14:59:40;14.23;;;2.60;;
19341;SDS011;9807;48.258;12.690;2023-08-31T15:02:07;6.93;;;2.53;;
19341;SDS011;9807;48.258;12.690;2023-08-31T15:04:33;6.20;;;2.20;;